Terminal Aerodrome Forecast
Issued by NWS

Home | Current Version | Previous Version | Text Only | Print | Product List | Glossary On
Versions: 1 2 3 4 5 6 7 8 9 10 11 12 13 14 15 16 17 18 19
000
FTUS42 KMHX 211700 RRA
TAFOAJ
TAF
KOAJ 211751Z 2118/2218 29006KT P6SM FEW050
     FM211900 29006KT P6SM VCTS SCT050CB
     FM220100 20003KT P6SM SCT050 BKN150
     FM220900 00000KT 5SM BR SCT100
     FM221200 VRB03KT P6SM SCT030
      AMD LTD TO CLD VIS AND WIND=

USA.gov is the U.S. government's official web portal to all federal, state and local government web resources and services.